Terminal Aerodrome Forecast
Issued by NWS

Home | Current Version | Previous Version | Text Only | Print | Product List | Glossary On
Versions: 1 2 3 4 5 6 7 8 9 10 11 12 13 14 15 16
000
FTUS44 KOHX 201700
TAFCKV
TAF
KCKV 201720Z 2018/2118 18009KT P6SM SCT050
     FM210000 23005KT P6SM SCT150
     FM211300 28009G16KT P6SM VCSH BKN030=

USA.gov is the U.S. government's official web portal to all federal, state and local government web resources and services.